sim
Sign-in with your pilot id or email,
or register
Callsign
Passwort

Schedule Details

Flight Number: OEC1024
Departure: Athens Eleftherios Venizelos (LGAV) at Time
Arrival: Munich Airport (EDDM) at Time
Route: RIMAX UL613 YNN DCT RETRA DCT GORPA DCT RASTA DCT REDBU Q112 NAPSA

Weather Information
Getting current METAR information for LGAV 261720Z 27014G24KT 9999 FEW030 24/14 Q1002 NOSIG
Getting current METAR information for EDDM 261720Z 25022KT 9999 -RA SCT023 OVC029 07/04 Q1000 NOSIG

Schedule Frequency

Route Map